createdAt,value
2019-04-29T00:00:01.073Z,9.29
2019-04-29T00:02:34.422Z,9.30
2019-04-29T00:05:05.613Z,9.30
2019-04-29T00:07:35.960Z,9.30
2019-04-29T00:10:09.592Z,9.34
2019-04-29T00:12:41.689Z,9.33
2019-04-29T00:15:35.302Z,9.37
2019-04-29T00:18:11.025Z,9.36
2019-04-29T00:20:48.267Z,9.34
2019-04-29T00:23:18.568Z,9.31
2019-04-29T00:25:49.865Z,9.30
2019-04-29T00:28:20.010Z,9.29
2019-04-29T00:30:50.207Z,9.29
2019-04-29T00:33:20.772Z,9.29
2019-04-29T00:35:51.213Z,9.32
2019-04-29T00:38:55.713Z,9.31
2019-04-29T00:42:03.517Z,9.28
2019-04-29T00:44:33.840Z,9.30
2019-04-29T00:47:04.061Z,9.31
2019-04-29T00:49:34.304Z,9.29
2019-04-29T00:52:04.617Z,9.31
2019-04-29T00:54:43.830Z,9.30
2019-04-29T00:57:14.077Z,9.32
2019-04-29T00:59:44.767Z,9.36
2019-04-29T01:02:15.950Z,9.40
2019-04-29T01:04:46.371Z,9.44
2019-04-29T01:07:17.352Z,9.44
2019-04-29T01:09:48.277Z,9.41
2019-04-29T01:12:18.832Z,9.45
2019-04-29T01:14:49.106Z,9.47
2019-04-29T01:17:19.616Z,9.45
2019-04-29T01:19:50.552Z,9.49
2019-04-29T01:22:21.099Z,9.52
2019-04-29T01:24:52.238Z,9.50
2019-04-29T01:27:30.713Z,9.51
2019-04-29T01:30:01.091Z,9.49
2019-04-29T01:32:31.988Z,9.49
2019-04-29T01:35:02.348Z,9.47
2019-04-29T01:37:36.837Z,9.48
2019-04-29T01:40:17.012Z,9.48
2019-04-29T01:42:47.353Z,9.52
2019-04-29T01:45:17.672Z,9.51
2019-04-29T01:47:48.086Z,9.53
2019-04-29T01:50:19.319Z,9.55
2019-04-29T01:52:51.066Z,9.56
2019-04-29T01:55:21.345Z,9.58
2019-04-29T01:57:51.692Z,9.60
2019-04-29T02:00:22.531Z,9.62
2019-04-29T02:02:54.025Z,9.65
2019-04-29T02:05:24.411Z,9.62
2019-04-29T02:07:54.657Z,9.63
2019-04-29T02:10:32.804Z,9.65
2019-04-29T02:13:03.478Z,9.68
2019-04-29T02:15:34.280Z,9.68
2019-04-29T02:18:06.839Z,9.71
2019-04-29T02:20:37.308Z,9.72
2019-04-29T02:23:24.168Z,9.70
2019-04-29T02:25:54.936Z,9.74
2019-04-29T02:28:25.589Z,9.73
2019-04-29T02:30:59.939Z,9.79
2019-04-29T02:33:30.125Z,9.75
2019-04-29T02:36:00.359Z,9.79
2019-04-29T02:38:55.732Z,9.77
2019-04-29T02:41:38.104Z,9.83
2019-04-29T02:44:10.033Z,9.87
2019-04-29T02:46:40.361Z,9.87
2019-04-29T02:49:10.567Z,9.88
2019-04-29T02:51:47.793Z,9.87
2019-04-29T02:54:18.045Z,9.90
2019-04-29T02:56:59.830Z,9.94
2019-04-29T02:59:34.585Z,9.93
2019-04-29T03:02:23.316Z,9.92
2019-04-29T03:05:11.684Z,9.93
2019-04-29T03:07:42.735Z,9.93
2019-04-29T03:10:13.204Z,9.94
2019-04-29T03:12:43.738Z,9.96
2019-04-29T03:15:21.096Z,9.99
2019-04-29T03:17:51.367Z,10.02
2019-04-29T03:20:30.433Z,10.06
2019-04-29T03:23:08.707Z,10.07
2019-04-29T03:25:40.116Z,10.08
2019-04-29T03:28:10.797Z,10.10
2019-04-29T03:30:42.125Z,10.09
2019-04-29T03:33:12.767Z,10.09
2019-04-29T03:35:43.090Z,10.09
2019-04-29T03:38:13.427Z,10.07
2019-04-29T03:40:45.422Z,10.10
2019-04-29T03:43:15.815Z,10.13
2019-04-29T03:45:47.115Z,10.16
2019-04-29T03:48:17.619Z,10.18
2019-04-29T03:50:49.040Z,10.21
2019-04-29T03:53:19.896Z,10.23
2019-04-29T03:55:52.457Z,10.20
2019-04-29T03:58:23.186Z,10.20
2019-04-29T04:00:59.654Z,10.21
2019-04-29T04:03:34.390Z,10.20
2019-04-29T04:06:26.518Z,10.19
2019-04-29T04:09:11.171Z,10.18
2019-04-29T04:11:41.783Z,10.16
2019-04-29T04:14:12.759Z,10.19
2019-04-29T04:17:20.412Z,10.18
2019-04-29T04:19:50.476Z,10.18
2019-04-29T04:22:21.033Z,10.20
2019-04-29T04:24:53.005Z,10.22
2019-04-29T04:27:23.205Z,10.26
2019-04-29T04:29:53.518Z,10.29
2019-04-29T04:32:24.089Z,10.27
2019-04-29T04:34:54.367Z,10.14
2019-04-29T04:37:24.567Z,10.22
2019-04-29T04:39:55.414Z,10.25
2019-04-29T04:42:29.843Z,10.25
2019-04-29T04:44:58.620Z,10.29
2019-04-29T04:47:28.941Z,10.28
2019-04-29T04:49:59.636Z,10.29
2019-04-29T04:52:30.530Z,10.31
2019-04-29T04:55:00.808Z,10.33
2019-04-29T04:57:31.084Z,10.37
2019-04-29T05:00:01.791Z,10.31
2019-04-29T05:02:32.418Z,10.30
2019-04-29T05:05:02.672Z,10.34
2019-04-29T05:07:34.004Z,10.35
2019-04-29T05:10:04.305Z,10.36
2019-04-29T05:12:34.578Z,10.44
2019-04-29T05:15:05.846Z,10.48
2019-04-29T05:17:36.915Z,10.52
2019-04-29T05:20:07.392Z,10.54
2019-04-29T05:22:37.664Z,10.51
2019-04-29T05:25:08.252Z,10.50
2019-04-29T05:27:38.883Z,10.55
2019-04-29T05:30:09.155Z,10.56
2019-04-29T05:32:44.914Z,10.55
2019-04-29T05:35:16.764Z,10.59
2019-04-29T05:37:56.943Z,10.58
2019-04-29T05:40:38.325Z,10.65
2019-04-29T05:43:10.918Z,10.66
2019-04-29T05:45:48.144Z,10.65
2019-04-29T05:48:19.055Z,10.63
2019-04-29T05:50:54.978Z,10.59
2019-04-29T05:53:28.498Z,10.67
2019-04-29T05:56:00.105Z,10.58
2019-04-29T05:58:32.875Z,10.62
2019-04-29T06:01:06.667Z,10.66
2019-04-29T06:03:37.746Z,10.66
2019-04-29T06:06:08.751Z,10.70
2019-04-29T06:08:39.539Z,10.71
2019-04-29T06:11:10.760Z,10.77
2019-04-29T06:13:43.177Z,10.69
2019-04-29T06:16:20.976Z,10.54
2019-04-29T06:18:59.665Z,10.61
2019-04-29T06:21:29.641Z,10.51
2019-04-29T06:24:04.190Z,10.56
2019-04-29T06:26:36.457Z,10.66
2019-04-29T06:29:10.673Z,10.80
2019-04-29T06:31:42.761Z,10.68
2019-04-29T06:34:14.950Z,10.75
2019-04-29T06:36:46.551Z,10.81
2019-04-29T06:39:21.681Z,10.80
2019-04-29T06:41:54.804Z,10.86
2019-04-29T06:44:27.955Z,10.82
2019-04-29T06:47:00.637Z,10.89
2019-04-29T06:49:32.479Z,10.89
2019-04-29T06:52:04.867Z,10.81
2019-04-29T06:54:36.574Z,10.65
2019-04-29T06:57:07.047Z,10.69
2019-04-29T06:59:38.078Z,10.56
2019-04-29T07:02:09.407Z,10.59
2019-04-29T07:04:41.317Z,10.60
2019-04-29T07:07:13.236Z,10.65
2019-04-29T07:09:46.931Z,10.64
2019-04-29T07:12:17.317Z,10.65
2019-04-29T07:14:48.191Z,10.61
2019-04-29T07:17:19.567Z,10.59
2019-04-29T07:19:50.012Z,10.66
2019-04-29T07:22:25.595Z,10.62
2019-04-29T07:24:53.270Z,10.66
2019-04-29T07:27:26.674Z,10.60
2019-04-29T07:30:01.898Z,10.70
2019-04-29T07:32:36.300Z,10.77
2019-04-29T07:35:09.837Z,10.83
2019-04-29T07:37:41.099Z,10.74
2019-04-29T07:40:12.604Z,10.74
2019-04-29T07:42:43.031Z,10.71
2019-04-29T07:45:44.289Z,10.83
2019-04-29T07:48:16.374Z,10.96
2019-04-29T07:50:49.541Z,11.03
2019-04-29T07:53:20.965Z,11.07
2019-04-29T07:55:55.064Z,11.12
2019-04-29T07:58:28.449Z,11.09
2019-04-29T08:01:04.287Z,10.96
2019-04-29T08:03:36.296Z,10.80
2019-04-29T08:06:08.954Z,10.82
2019-04-29T08:08:54.360Z,10.82
2019-04-29T08:11:16.280Z,10.85
2019-04-29T08:13:51.307Z,10.92
2019-04-29T08:16:25.476Z,10.98
2019-04-29T08:18:57.713Z,11.13
2019-04-29T08:21:30.080Z,11.30
2019-04-29T08:24:02.249Z,11.48
2019-04-29T08:26:38.189Z,11.69
2019-04-29T08:29:07.627Z,11.85
2019-04-29T08:31:38.746Z,11.92
2019-04-29T08:34:11.146Z,11.84
2019-04-29T08:36:42.182Z,11.81
2019-04-29T08:39:13.299Z,12.05
2019-04-29T08:41:44.340Z,12.14
2019-04-29T08:44:39.872Z,11.97
2019-04-29T08:47:16.428Z,11.94
2019-04-29T08:49:47.036Z,11.86
2019-04-29T08:52:17.199Z,11.75
2019-04-29T08:54:50.754Z,11.71
2019-04-29T08:57:20.953Z,11.58
2019-04-29T08:59:51.204Z,11.68
2019-04-29T09:02:35.014Z,11.91
2019-04-29T09:05:02.259Z,12.01
2019-04-29T09:07:33.648Z,11.92
2019-04-29T09:10:03.997Z,12.14
2019-04-29T09:12:35.458Z,12.27
2019-04-29T09:15:06.244Z,12.27
2019-04-29T09:17:36.415Z,11.99
2019-04-29T09:20:07.748Z,12.24
2019-04-29T09:22:40.614Z,12.48
2019-04-29T09:25:35.870Z,12.49
2019-04-29T09:28:15.070Z,12.36
2019-04-29T09:30:43.939Z,12.18
2019-04-29T09:33:14.387Z,12.22
2019-04-29T09:35:45.031Z,12.22
2019-04-29T09:38:15.452Z,12.37
2019-04-29T09:41:08.343Z,12.62
2019-04-29T09:43:47.896Z,12.65
2019-04-29T09:46:23.063Z,12.96
2019-04-29T09:48:54.220Z,13.38
2019-04-29T09:51:27.816Z,13.75
2019-04-29T09:53:56.955Z,13.93
2019-04-29T09:56:27.437Z,14.11
2019-04-29T09:59:26.603Z,13.98
2019-04-29T10:02:12.479Z,14.14
2019-04-29T10:04:56.397Z,14.27
2019-04-29T10:07:22.878Z,14.01
2019-04-29T10:09:57.464Z,14.08
2019-04-29T10:12:33.101Z,14.51
2019-04-29T10:15:04.389Z,14.08
2019-04-29T10:17:45.822Z,14.61
2019-04-29T10:20:30.482Z,14.65
2019-04-29T10:23:01.379Z,14.81
2019-04-29T10:25:32.103Z,15.12
2019-04-29T10:28:03.639Z,14.71
2019-04-29T10:30:34.607Z,14.71
2019-04-29T10:33:05.489Z,14.80
2019-04-29T10:35:55.403Z,15.43
2019-04-29T10:38:25.613Z,15.43
2019-04-29T10:41:05.924Z,15.34
2019-04-29T10:43:55.625Z,16.35
2019-04-29T10:46:54.405Z,16.71
2019-04-29T10:49:29.999Z,15.92
2019-04-29T10:52:03.008Z,16.20
2019-04-29T10:54:34.573Z,16.67
2019-04-29T10:57:04.979Z,16.62
2019-04-29T10:59:40.807Z,16.42
2019-04-29T11:02:23.293Z,15.64
2019-04-29T11:04:55.034Z,15.24
2019-04-29T11:07:33.287Z,15.14
2019-04-29T11:10:24.001Z,15.31
2019-04-29T11:12:42.858Z,15.63
2019-04-29T11:15:15.354Z,15.35
2019-04-29T11:17:46.416Z,15.72
2019-04-29T11:20:21.430Z,15.87
2019-04-29T11:22:57.144Z,15.58
2019-04-29T11:25:51.162Z,15.46
2019-04-29T11:28:19.499Z,15.51
2019-04-29T11:30:50.520Z,15.76
2019-04-29T11:33:35.632Z,15.23
2019-04-29T11:36:09.204Z,15.56
2019-04-29T11:38:40.394Z,15.65
2019-04-29T11:41:12.189Z,15.76
2019-04-29T11:43:42.674Z,16.51
2019-04-29T11:46:14.396Z,17.08
2019-04-29T11:48:45.517Z,17.41
2019-04-29T11:51:22.937Z,18.33
2019-04-29T11:53:58.456Z,18.45
2019-04-29T11:56:29.451Z,18.75
2019-04-29T11:59:12.471Z,18.32
2019-04-29T12:01:55.319Z,18.75
2019-04-29T12:04:34.700Z,18.48
2019-04-29T12:07:06.179Z,18.46
2019-04-29T12:09:36.590Z,18.83
2019-04-29T12:12:08.050Z,18.77
2019-04-29T12:14:48.068Z,19.20
2019-04-29T12:17:40.213Z,19.76
2019-04-29T12:20:23.496Z,19.98
2019-04-29T12:22:53.633Z,19.38
2019-04-29T12:25:27.629Z,19.59
2019-04-29T12:28:01.577Z,20.28
2019-04-29T12:30:36.417Z,19.94
2019-04-29T12:33:12.233Z,19.72
2019-04-29T12:36:02.868Z,19.18
2019-04-29T12:38:52.261Z,18.61
2019-04-29T12:42:00.654Z,17.85
2019-04-29T12:44:35.410Z,18.08
2019-04-29T12:47:26.146Z,18.43
2019-04-29T12:50:42.046Z,19.58
2019-04-29T12:52:28.789Z,18.74
2019-04-29T12:55:12.982Z,19.86
2019-04-29T12:57:33.329Z,19.66
2019-04-29T13:00:07.604Z,20.29
2019-04-29T13:02:55.581Z,20.63
2019-04-29T13:05:57.142Z,20.33
2019-04-29T13:08:44.160Z,20.28
2019-04-29T13:11:35.996Z,20.10
2019-04-29T13:14:02.498Z,19.97
2019-04-29T13:16:55.321Z,20.37
2019-04-29T13:19:32.198Z,20.53
2019-04-29T13:22:02.407Z,20.75
2019-04-29T13:24:32.667Z,20.80
2019-04-29T13:27:15.713Z,20.97
2019-04-29T13:29:37.425Z,21.36
2019-04-29T13:32:08.370Z,21.67
2019-04-29T13:34:41.483Z,21.78
2019-04-29T13:37:18.840Z,21.68
2019-04-29T13:39:45.180Z,21.59
2019-04-29T13:42:16.099Z,21.80
2019-04-29T13:45:05.374Z,20.54
2019-04-29T13:47:29.333Z,20.71
2019-04-29T13:50:17.114Z,21.18
2019-04-29T13:52:35.615Z,20.60
2019-04-29T13:55:17.157Z,20.44
2019-04-29T13:57:38.618Z,20.79
2019-04-29T14:00:36.247Z,21.36
2019-04-29T14:03:18.029Z,22.01
2019-04-29T14:05:48.857Z,22.17
2019-04-29T14:08:19.415Z,21.47
2019-04-29T14:10:51.077Z,22.43
2019-04-29T14:13:21.956Z,22.30
2019-04-29T14:15:52.725Z,22.56
2019-04-29T14:18:23.212Z,21.90
2019-04-29T14:20:53.807Z,21.59
2019-04-29T14:23:24.435Z,21.75
2019-04-29T14:25:55.245Z,21.37
2019-04-29T14:28:26.655Z,19.70
2019-04-29T14:30:57.322Z,20.56
2019-04-29T14:33:33.168Z,19.26
2019-04-29T14:36:07.443Z,19.20
2019-04-29T14:38:40.489Z,18.81
2019-04-29T14:41:09.806Z,20.44
2019-04-29T14:43:50.627Z,21.31
2019-04-29T14:46:45.406Z,21.85
2019-04-29T14:49:41.268Z,21.82
2019-04-29T14:52:13.624Z,21.66
2019-04-29T14:54:44.986Z,21.97
2019-04-29T14:57:18.467Z,21.57
2019-04-29T14:59:49.576Z,22.06
2019-04-29T15:02:23.037Z,22.34
2019-04-29T15:04:53.778Z,22.57
2019-04-29T15:07:25.231Z,23.17
2019-04-29T15:09:57.315Z,23.35
2019-04-29T15:12:51.983Z,23.23
2019-04-29T15:15:44.380Z,22.72
2019-04-29T15:18:46.149Z,22.78
2019-04-29T15:21:08.509Z,22.60
2019-04-29T15:23:39.629Z,22.16
2019-04-29T15:26:11.924Z,20.45
2019-04-29T15:28:52.803Z,18.93
2019-04-29T15:31:24.266Z,18.33
2019-04-29T15:33:55.148Z,18.78
2019-04-29T15:36:25.790Z,18.63
2019-04-29T15:39:08.889Z,18.77
2019-04-29T15:41:31.039Z,19.18
2019-04-29T15:44:07.796Z,18.98
2019-04-29T15:46:45.597Z,18.42
2019-04-29T15:49:04.983Z,17.88
2019-04-29T15:51:35.830Z,17.48
2019-04-29T15:54:09.331Z,17.48
2019-04-29T15:56:39.797Z,17.35
2019-04-29T15:59:10.443Z,17.20
2019-04-29T16:01:41.784Z,17.21
2019-04-29T16:04:20.961Z,16.86
2019-04-29T16:07:17.041Z,16.71
2019-04-29T16:09:51.956Z,16.63
2019-04-29T16:12:27.548Z,16.79
2019-04-29T16:14:57.896Z,16.69
2019-04-29T16:17:31.923Z,16.60
2019-04-29T16:20:00.951Z,16.56
2019-04-29T16:22:31.326Z,16.50
2019-04-29T16:25:04.890Z,16.59
2019-04-29T16:27:41.701Z,16.66
2019-04-29T16:30:11.446Z,16.50
2019-04-29T16:32:42.193Z,16.39
2019-04-29T16:35:17.928Z,16.42
2019-04-29T16:37:46.349Z,16.34
2019-04-29T16:40:17.197Z,16.43
2019-04-29T16:43:04.062Z,16.29
2019-04-29T16:45:51.599Z,16.27
2019-04-29T16:48:20.569Z,16.21
2019-04-29T16:50:53.887Z,16.12
2019-04-29T16:53:24.077Z,16.00
2019-04-29T16:55:54.810Z,16.12
2019-04-29T16:58:25.127Z,15.93
2019-04-29T17:00:57.067Z,15.73
2019-04-29T17:03:28.073Z,15.71
2019-04-29T17:05:58.252Z,15.73
2019-04-29T17:08:37.492Z,15.66
2019-04-29T17:11:19.602Z,15.65
2019-04-29T17:13:49.986Z,15.45
2019-04-29T17:16:20.770Z,15.41
2019-04-29T17:18:51.014Z,15.44
2019-04-29T17:21:22.309Z,15.32
2019-04-29T17:23:52.673Z,15.28
2019-04-29T17:26:25.228Z,15.16
2019-04-29T17:29:37.365Z,15.16
2019-04-29T17:32:01.748Z,15.15
2019-04-29T17:34:56.818Z,15.09
2019-04-29T17:37:06.555Z,15.00
2019-04-29T17:39:37.306Z,15.07
2019-04-29T17:42:07.752Z,15.04
2019-04-29T17:44:44.166Z,14.98
2019-04-29T17:47:42.604Z,15.08
2019-04-29T17:50:30.502Z,15.12
2019-04-29T17:52:59.246Z,15.08
2019-04-29T17:55:56.302Z,14.96
2019-04-29T17:58:35.837Z,14.98
2019-04-29T18:01:28.311Z,14.90
2019-04-29T18:04:16.675Z,14.71
2019-04-29T18:07:11.997Z,14.59
2019-04-29T18:09:47.506Z,14.54
2019-04-29T18:12:22.397Z,14.53
2019-04-29T18:14:55.082Z,14.37
2019-04-29T18:17:36.128Z,14.48
2019-04-29T18:20:33.033Z,14.36
2019-04-29T18:23:19.142Z,14.35
2019-04-29T18:25:54.838Z,14.34
2019-04-29T18:28:25.620Z,14.25
2019-04-29T18:30:57.922Z,14.28
2019-04-29T18:33:30.398Z,14.17
2019-04-29T18:36:04.572Z,14.06
2019-04-29T18:38:34.663Z,14.00
2019-04-29T18:41:07.104Z,14.08
2019-04-29T18:43:37.803Z,14.11
2019-04-29T18:46:12.524Z,13.97
2019-04-29T18:48:41.421Z,13.85
2019-04-29T18:51:12.989Z,13.67
2019-04-29T18:53:47.157Z,13.69
2019-04-29T18:56:17.937Z,13.65
2019-04-29T18:58:50.367Z,13.56
2019-04-29T19:01:28.561Z,13.51
2019-04-29T19:04:11.520Z,13.46
2019-04-29T19:06:40.532Z,13.46
2019-04-29T19:09:18.503Z,13.44
2019-04-29T19:11:46.282Z,13.36
2019-04-29T19:14:20.554Z,13.40
2019-04-29T19:16:52.818Z,13.33
2019-04-29T19:19:25.221Z,13.22
2019-04-29T19:21:56.045Z,13.21
2019-04-29T19:24:27.550Z,13.07
2019-04-29T19:27:00.554Z,13.07
2019-04-29T19:29:31.385Z,13.09
2019-04-29T19:32:02.487Z,13.09
2019-04-29T19:34:42.327Z,13.09
2019-04-29T19:37:05.487Z,13.03
2019-04-29T19:39:36.249Z,13.03
2019-04-29T19:42:07.382Z,13.02
2019-04-29T19:44:38.534Z,12.94
2019-04-29T19:47:10.923Z,12.87
2019-04-29T19:49:44.704Z,12.87
2019-04-29T19:52:18.758Z,12.88
2019-04-29T19:54:47.938Z,12.88
2019-04-29T19:57:21.748Z,12.63
2019-04-29T19:59:54.290Z,12.63
2019-04-29T20:02:48.002Z,12.40
2019-04-29T20:05:31.334Z,12.40
2019-04-29T20:08:00.741Z,12.24
2019-04-29T20:10:36.591Z,12.22
2019-04-29T20:13:03.806Z,12.22
2019-04-29T20:15:38.086Z,12.12
2019-04-29T20:18:40.435Z,11.98
2019-04-29T20:21:28.334Z,11.98
2019-04-29T20:23:54.609Z,11.83
2019-04-29T20:26:29.594Z,11.72
2019-04-29T20:28:58.397Z,11.65
2019-04-29T20:31:35.347Z,11.59
2019-04-29T20:34:08.198Z,11.58
2019-04-29T20:36:42.848Z,11.59
2019-04-29T20:39:15.638Z,11.50
2019-04-29T20:41:47.034Z,11.50
2019-04-29T20:44:16.620Z,11.56
2019-04-29T20:47:12.947Z,11.54
2019-04-29T20:49:19.030Z,11.59
2019-04-29T20:51:52.508Z,11.58
2019-04-29T20:54:25.744Z,11.54
2019-04-29T20:57:04.946Z,11.60
2019-04-29T20:59:31.653Z,11.69
2019-04-29T21:02:11.996Z,11.54
2019-04-29T21:04:45.742Z,11.39
2019-04-29T21:07:10.078Z,11.24
2019-04-29T21:09:43.093Z,11.15
2019-04-29T21:12:25.476Z,11.08
2019-04-29T21:14:59.505Z,11.06
2019-04-29T21:17:31.954Z,10.98
2019-04-29T21:20:02.115Z,10.95
2019-04-29T21:22:32.750Z,10.81
2019-04-29T21:25:03.227Z,10.72
2019-04-29T21:27:35.211Z,10.62
2019-04-29T21:30:07.379Z,10.57
2019-04-29T21:32:39.051Z,10.45
2019-04-29T21:35:31.887Z,10.37
2019-04-29T21:38:26.003Z,10.36
2019-04-29T21:41:02.030Z,10.37
2019-04-29T21:43:35.460Z,10.40
2019-04-29T21:46:05.838Z,10.41
2019-04-29T21:48:37.442Z,10.35
2019-04-29T21:51:11.149Z,10.22
2019-04-29T21:53:40.445Z,10.21
2019-04-29T21:56:11.653Z,10.15
2019-04-29T21:58:41.954Z,10.09
2019-04-29T22:01:12.351Z,10.09
2019-04-29T22:03:43.664Z,10.02
2019-04-29T22:06:14.157Z,10.01
2019-04-29T22:08:45.230Z,9.95
2019-04-29T22:11:17.451Z,9.84
2019-04-29T22:13:47.621Z,9.79
2019-04-29T22:16:18.176Z,9.76
2019-04-29T22:18:52.069Z,9.78
2019-04-29T22:21:23.225Z,9.86
2019-04-29T22:23:57.598Z,9.96
2019-04-29T22:26:28.172Z,9.99
2019-04-29T22:29:03.260Z,9.95
2019-04-29T22:31:33.674Z,9.77
2019-04-29T22:34:02.908Z,9.82
2019-04-29T22:36:33.383Z,9.82
2019-04-29T22:39:06.239Z,9.75
2019-04-29T22:41:59.102Z,9.65
2019-04-29T22:44:29.928Z,9.57
2019-04-29T22:47:00.134Z,9.24
2019-04-29T22:49:30.948Z,9.10
2019-04-29T22:52:02.355Z,9.05
2019-04-29T22:54:35.348Z,8.99
2019-04-29T22:57:06.731Z,9.00
2019-04-29T22:59:37.307Z,9.00
2019-04-29T23:02:07.893Z,8.95
2019-04-29T23:04:38.049Z,8.98
2019-04-29T23:07:09.110Z,8.99
2019-04-29T23:09:41.632Z,8.99
2019-04-29T23:12:14.751Z,8.92
2019-04-29T23:14:44.387Z,8.81
2019-04-29T23:17:15.808Z,8.65
2019-04-29T23:19:50.720Z,8.65
2019-04-29T23:22:32.956Z,8.71
2019-04-29T23:25:29.807Z,8.75
2019-04-29T23:27:58.151Z,8.75
2019-04-29T23:30:28.988Z,8.85
2019-04-29T23:32:59.909Z,8.87
2019-04-29T23:35:30.250Z,8.92
2019-04-29T23:38:04.365Z,8.90
2019-04-29T23:40:33.032Z,8.89
2019-04-29T23:43:03.444Z,8.89
2019-04-29T23:45:35.121Z,8.86
2019-04-29T23:48:05.703Z,8.80
2019-04-29T23:50:36.086Z,8.79
2019-04-29T23:53:06.265Z,8.78
2019-04-29T23:55:36.524Z,8.67
2019-04-29T23:58:20.998Z,8.57
